Time;durP1;ratioP1;P1;durP2;ratioP2;P2;SDS_P1;SDS_P2;PMS_P1;PMS_P2;Temp;Humidity;BMP_temperature;BMP_pressure;BME280_temperature;BME280_humidity;BME280_pressure;Samples;Min_cycle;Max_cycle;Signal;HPM_P1;HPM_P2
2021/08/30 00:00:57;;;;;;;19.73;15.88;;;16.70;94.80;;;;;;5124872;28;20027;-79
2021/08/30 00:03:23;;;;;;;20.63;14.88;;;16.70;94.70;;;;;;5123994;28;20095;-81
2021/08/30 00:05:49;;;;;;;19.40;14.68;;;16.70;94.70;;;;;;5105850;28;20023;-80
2021/08/30 00:08:14;;;;;;;17.60;14.05;;;16.70;94.70;;;;;;5088129;28;20027;-82
2021/08/30 00:10:40;;;;;;;20.90;14.25;;;16.70;94.60;;;;;;5120563;28;20031;-78
2021/08/30 00:13:06;;;;;;;18.65;14.05;;;16.70;94.60;;;;;;5102340;28;20074;-79
2021/08/30 00:15:32;;;;;;;18.55;13.40;;;16.70;94.60;;;;;;5068830;28;20033;-79
2021/08/30 00:17:57;;;;;;;17.33;13.70;;;16.80;94.80;;;;;;5103378;28;20021;-79
2021/08/30 00:20:23;;;;;;;17.60;14.13;;;16.80;94.50;;;;;;5102801;28;20032;-78
2021/08/30 00:22:49;;;;;;;22.00;15.75;;;16.80;94.50;;;;;;5102857;28;20059;-79
2021/08/30 00:25:15;;;;;;;18.35;14.43;;;16.80;94.40;;;;;;5090023;28;20021;-78
2021/08/30 00:27:41;;;;;;;20.85;14.75;;;16.80;94.40;;;;;;5106063;28;20042;-78
2021/08/30 00:30:09;;;;;;;19.73;15.68;;;16.80;94.40;;;;;;5105369;28;20114;-79
2021/08/30 00:32:35;;;;;;;20.67;15.32;;;16.80;94.40;;;;;;5106802;28;20042;-78
2021/08/30 00:35:00;;;;;;;24.67;15.80;;;16.80;94.40;;;;;;5106360;28;20032;-78
2021/08/30 00:37:27;;;;;;;18.08;14.18;;;16.80;94.40;;;;;;5089189;28;20024;-78
2021/08/30 00:39:53;;;;;;;22.40;16.10;;;16.80;94.40;;;;;;5107282;28;20048;-78
2021/08/30 00:42:19;;;;;;;21.88;16.27;;;16.70;94.30;;;;;;5071673;28;20060;-86
2021/08/30 00:44:46;;;;;;;20.55;15.82;;;16.70;94.30;;;;;;5102894;28;20052;-79
2021/08/30 00:47:13;;;;;;;20.02;16.45;;;16.70;94.30;;;;;;5085170;28;20028;-79
2021/08/30 00:49:39;;;;;;;19.33;15.00;;;16.70;94.40;;;;;;5084850;28;20028;-79
2021/08/30 00:52:05;;;;;;;22.67;16.40;;;16.70;94.40;;;;;;5119498;28;20043;-77
2021/08/30 00:54:32;;;;;;;22.45;16.52;;;16.70;94.30;;;;;;5104934;28;20035;-76
2021/08/30 00:57:00;;;;;;;19.73;15.23;;;16.70;94.30;;;;;;5123042;28;20035;-76
2021/08/30 00:59:25;;;;;;;20.02;15.98;;;16.70;94.30;;;;;;5123249;28;20020;-79
2021/08/30 01:01:51;;;;;;;22.08;15.68;;;16.70;94.30;;;;;;5126499;28;20109;-79
2021/08/30 01:04:18;;;;;;;20.48;16.08;;;16.70;94.20;;;;;;5125968;28;20038;-77
2021/08/30 01:06:55;;;;;;;19.02;15.23;;;16.70;94.20;;;;;;5110221;28;20106;-77
2021/08/30 01:09:39;;;;;;;19.65;16.20;;;16.70;94.20;;;;;;5105337;28;20028;-78
2021/08/30 01:12:28;;;;;;;20.02;16.13;;;16.70;94.20;;;;;;5105420;28;20050;-77
2021/08/30 01:15:02;;;;;;;21.70;15.65;;;16.70;94.20;;;;;;5104719;28;20061;-76
2021/08/30 01:17:30;;;;;;;20.45;15.95;;;16.70;94.20;;;;;;5104650;28;20111;-80
2021/08/30 01:20:08;;;;;;;22.05;15.65;;;16.60;94.20;;;;;;5101963;28;20020;-77
2021/08/30 01:22:36;;;;;;;22.40;16.42;;;16.60;94.20;;;;;;5101181;28;20040;-77
2021/08/30 01:25:02;;;;;;;19.45;15.93;;;16.60;94.20;;;;;;5100473;28;20039;-78
2021/08/30 01:27:30;;;;;;;25.17;16.00;;;16.60;94.30;;;;;;5096859;28;20028;-84
2021/08/30 01:30:15;;;;;;;22.52;16.25;;;16.60;94.30;;;;;;5084823;28;20023;-77
2021/08/30 01:32:44;;;;;;;18.88;14.82;;;16.60;94.30;;;;;;5107600;27;20101;-76
2021/08/30 01:35:15;;;;;;;19.83;15.23;;;16.60;94.30;;;;;;5116053;28;20023;-78
2021/08/30 01:37:44;;;;;;;21.70;14.77;;;16.60;94.30;;;;;;5120393;28;20468;-77
2021/08/30 01:40:13;;;;;;;20.20;14.82;;;16.60;94.30;;;;;;5121808;28;20027;-79
2021/08/30 01:42:43;;;;;;;21.85;15.93;;;16.50;94.30;;;;;;5121441;28;20048;-79
2021/08/30 01:45:12;;;;;;;21.17;15.38;;;16.50;94.30;;;;;;5120476;28;20023;-77
2021/08/30 01:47:39;;;;;;;19.90;15.18;;;16.50;94.40;;;;;;5107406;28;20464;-78
2021/08/30 01:50:06;;;;;;;18.05;15.57;;;16.50;94.40;;;;;;5099549;28;20027;-78
2021/08/30 01:52:36;;;;;;;20.08;16.10;;;16.50;94.40;;;;;;5066485;28;20040;-83
2021/08/30 01:55:12;;;;;;;27.60;18.98;;;16.50;94.40;;;;;;5099989;28;20080;-77
2021/08/30 02:00:42;;;;;;;20.00;15.63;;;16.50;94.40;;;;;;5100335;28;20028;-79
2021/08/30 02:00:45;;;;;;;24.35;17.77;;;16.50;94.50;;;;;;5100803;28;20475;-78
2021/08/30 02:03:16;;;;;;;25.00;17.42;;;16.40;94.50;;;;;;5100505;28;20024;-79
2021/08/30 02:05:44;;;;;;;23.73;17.83;;;16.40;94.50;;;;;;5101905;28;20032;-78
2021/08/30 02:08:10;;;;;;;26.67;17.42;;;16.40;94.60;;;;;;5100975;28;20095;-80
2021/08/30 02:10:36;;;;;;;25.83;18.88;;;16.40;94.60;;;;;;5100646;28;20102;-79
2021/08/30 02:13:02;;;;;;;25.52;18.17;;;16.40;94.60;;;;;;5100890;28;20034;-77
2021/08/30 02:15:27;;;;;;;26.52;18.88;;;16.40;94.70;;;;;;5109321;28;20038;-77
2021/08/30 02:17:59;;;;;;;24.83;18.35;;;16.40;94.70;;;;;;5118470;28;20099;-77
2021/08/30 02:20:29;;;;;;;24.87;19.20;;;16.40;94.70;;;;;;5120263;28;20051;-78
2021/08/30 02:22:58;;;;;;;23.15;19.08;;;16.40;94.70;;;;;;5117766;28;20340;-78
2021/08/30 02:25:25;;;;;;;24.60;19.23;;;16.40;94.80;;;;;;5119469;28;20516;-76
2021/08/30 02:27:57;;;;;;;25.20;17.95;;;16.40;94.70;;;;;;5117782;28;20111;-75
2021/08/30 02:30:36;;;;;;;25.05;18.17;;;16.40;94.70;;;;;;5115627;28;20031;-77
2021/08/30 02:33:12;;;;;;;23.58;17.00;;;16.40;94.80;;;;;;5099297;28;20032;-79
2021/08/30 02:35:42;;;;;;;24.98;17.42;;;16.40;94.80;;;;;;5101792;28;20020;-81
2021/08/30 02:38:10;;;;;;;25.35;17.92;;;16.40;94.80;;;;;;5102039;28;20050;-79
2021/08/30 02:40:38;;;;;;;28.13;18.02;;;16.40;94.80;;;;;;5101796;28;20107;-82
2021/08/30 02:43:04;;;;;;;22.88;17.75;;;16.40;94.80;;;;;;5100787;28;20056;-79
2021/08/30 02:45:31;;;;;;;23.52;17.73;;;16.40;94.80;;;;;;5100736;28;20040;-78
2021/08/30 02:48:00;;;;;;;20.85;16.17;;;16.40;94.80;;;;;;5100319;28;20027;-80
2021/08/30 02:50:28;;;;;;;21.70;17.05;;;16.40;94.80;;;;;;5111649;28;20127;-78
2021/08/30 02:52:57;;;;;;;26.10;17.58;;;16.40;94.80;;;;;;5122228;28;20102;-77
2021/08/30 02:55:24;;;;;;;22.80;17.80;;;16.40;94.80;;;;;;5081581;28;20031;-78
2021/08/30 02:57:50;;;;;;;23.13;17.77;;;16.40;94.80;;;;;;5065197;28;20044;-79
2021/08/30 03:00:17;;;;;;;19.27;14.52;;;16.40;94.80;;;;;;5082114;28;20016;-76
2021/08/30 03:02:46;;;;;;;23.30;16.58;;;16.40;94.80;;;;;;5082166;28;20037;-77
2021/08/30 03:05:13;;;;;;;24.15;17.70;;;16.50;94.80;;;;;;5081498;28;20043;-78
2021/08/30 03:07:39;;;;;;;21.40;17.98;;;16.40;94.70;;;;;;5082963;28;20148;-80
2021/08/30 03:10:06;;;;;;;27.58;17.13;;;16.40;94.70;;;;;;5083060;28;20016;-77
2021/08/30 03:12:40;;;;;;;19.63;15.75;;;16.40;94.80;;;;;;5067161;28;20029;-79
2021/08/30 03:15:08;;;;;;;21.75;16.55;;;16.40;94.80;;;;;;5084673;28;20044;-80
2021/08/30 03:17:39;;;;;;;27.23;17.77;;;16.40;94.80;;;;;;5085507;28;20036;-77
2021/08/30 03:20:07;;;;;;;22.88;17.00;;;16.40;94.80;;;;;;5093670;28;20012;-78
2021/08/30 03:22:34;;;;;;;27.17;18.65;;;16.40;94.80;;;;;;5115274;28;20028;-77
2021/08/30 03:25:03;;;;;;;23.92;17.13;;;16.40;94.80;;;;;;5088018;28;20037;-77
2021/08/30 03:27:30;;;;;;;22.02;16.48;;;16.40;94.80;;;;;;5083397;28;20115;-79
2021/08/30 03:29:57;;;;;;;21.35;15.77;;;16.40;94.80;;;;;;5084724;28;20024;-76
2021/08/30 03:32:25;;;;;;;21.73;16.52;;;16.40;94.80;;;;;;5083486;28;20089;-78
2021/08/30 03:34:52;;;;;;;25.58;16.65;;;16.30;94.80;;;;;;5084176;28;20028;-77
2021/08/30 03:37:18;;;;;;;21.10;16.20;;;16.40;94.80;;;;;;5082973;28;20031;-77
2021/08/30 03:39:46;;;;;;;22.52;16.38;;;16.40;94.80;;;;;;5082100;28;20037;-86
2021/08/30 03:42:12;;;;;;;21.30;15.73;;;16.40;94.80;;;;;;5082616;28;20061;-77
2021/08/30 03:44:39;;;;;;;21.17;16.42;;;16.40;94.80;;;;;;5068527;28;20082;-78
2021/08/30 03:47:06;;;;;;;23.60;16.77;;;16.40;94.80;;;;;;5067328;28;20021;-79
2021/08/30 03:49:35;;;;;;;19.73;15.80;;;16.30;94.80;;;;;;5065660;28;20033;-78
2021/08/30 03:52:02;;;;;;;22.13;17.23;;;16.40;94.80;;;;;;5082833;28;20029;-80
2021/08/30 03:54:27;;;;;;;21.88;14.38;;;16.30;94.80;;;;;;5079401;28;20028;-76
2021/08/30 03:56:55;;;;;;;23.17;15.23;;;16.30;94.80;;;;;;5100883;28;20028;-76
2021/08/30 03:59:21;;;;;;;20.98;15.13;;;16.30;94.80;;;;;;5105916;28;20034;-78
2021/08/30 04:01:50;;;;;;;22.02;16.20;;;16.30;94.80;;;;;;5089235;28;20034;-84
2021/08/30 04:04:20;;;;;;;20.35;14.73;;;16.30;94.80;;;;;;5097635;28;20554;-79
2021/08/30 04:06:46;;;;;;;21.20;15.02;;;16.30;94.80;;;;;;5119238;28;20102;-82
2021/08/30 04:09:19;;;;;;;25.17;16.33;;;16.30;94.80;;;;;;5116439;28;20054;-78
2021/08/30 04:11:46;;;;;;;25.33;16.15;;;16.30;94.80;;;;;;5116272;28;20123;-81
2021/08/30 04:14:12;;;;;;;23.10;16.40;;;16.30;94.80;;;;;;5116170;28;20108;-78
2021/08/30 04:16:42;;;;;;;22.80;16.10;;;16.30;94.80;;;;;;5115361;28;20020;-78
2021/08/30 04:19:09;;;;;;;19.52;14.90;;;16.30;94.80;;;;;;5115414;28;20618;-78
2021/08/30 04:21:35;;;;;;;24.67;17.33;;;16.30;94.80;;;;;;5116369;28;20031;-79
2021/08/30 04:24:01;;;;;;;20.83;16.50;;;16.30;94.80;;;;;;5115115;28;20471;-78
2021/08/30 04:26:26;;;;;;;20.20;16.23;;;16.30;94.80;;;;;;5116846;28;20084;-78
2021/08/30 04:28:52;;;;;;;23.35;16.42;;;16.30;94.90;;;;;;5115261;28;20055;-82
2021/08/30 04:31:18;;;;;;;24.13;16.10;;;16.30;94.90;;;;;;5115329;28;20084;-78
2021/08/30 04:33:44;;;;;;;18.92;16.02;;;16.30;94.90;;;;;;5098660;28;20020;-80
2021/08/30 04:36:10;;;;;;;24.30;17.33;;;16.30;94.90;;;;;;5098485;28;20173;-78
2021/08/30 04:38:35;;;;;;;23.58;17.33;;;16.30;94.90;;;;;;5116567;28;20055;-78
2021/08/30 04:41:01;;;;;;;23.00;15.55;;;16.30;94.90;;;;;;5115236;28;20073;-78
2021/08/30 04:43:27;;;;;;;25.10;17.50;;;16.30;94.90;;;;;;5117124;28;20173;-78
2021/08/30 04:45:53;;;;;;;23.30;17.70;;;16.30;94.90;;;;;;5114852;28;20027;-80
2021/08/30 04:48:18;;;;;;;22.33;16.70;;;16.30;94.90;;;;;;5114658;28;20030;-77
2021/08/30 04:50:44;;;;;;;22.75;16.73;;;16.30;94.90;;;;;;5098166;28;20456;-78
2021/08/30 04:53:10;;;;;;;26.33;17.70;;;16.30;94.90;;;;;;5073330;28;20025;-78
2021/08/30 04:55:36;;;;;;;21.33;16.75;;;16.30;95.00;;;;;;5057596;28;20082;-78
2021/08/30 04:58:04;;;;;;;25.30;17.95;;;16.30;95.00;;;;;;5074168;28;20020;-78
2021/08/30 05:00:30;;;;;;;22.35;17.35;;;16.30;95.00;;;;;;5074200;28;20028;-79
2021/08/30 05:02:55;;;;;;;20.92;16.13;;;16.30;95.00;;;;;;5057955;28;20032;-82
2021/08/30 05:05:21;;;;;;;22.65;16.58;;;16.30;95.00;;;;;;5090876;28;20051;-79
2021/08/30 05:07:47;;;;;;;25.20;16.50;;;16.30;95.00;;;;;;5057143;28;20414;-78
2021/08/30 05:10:14;;;;;;;24.08;17.45;;;16.30;95.00;;;;;;5072687;28;20138;-78
2021/08/30 05:12:39;;;;;;;26.08;16.98;;;16.30;94.90;;;;;;5057117;28;20460;-78
2021/08/30 05:15:06;;;;;;;23.70;17.77;;;16.30;94.90;;;;;;5056528;28;20083;-78
2021/08/30 05:17:31;;;;;;;24.25;17.80;;;16.30;94.90;;;;;;5074858;28;20108;-78
2021/08/30 05:19:57;;;;;;;21.05;17.13;;;16.40;94.90;;;;;;5073205;28;20033;-80
2021/08/30 05:22:23;;;;;;;22.23;17.52;;;16.40;95.00;;;;;;5074778;28;20745;-79
2021/08/30 05:24:49;;;;;;;22.70;16.95;;;16.40;94.90;;;;;;5113617;28;20032;-77
2021/08/30 05:27:14;;;;;;;20.45;16.27;;;16.40;94.90;;;;;;5115042;28;20080;-78
2021/08/30 05:29:40;;;;;;;24.52;17.50;;;16.50;94.90;;;;;;5110612;28;20110;-78
2021/08/30 05:32:06;;;;;;;23.40;17.38;;;16.40;94.90;;;;;;5093941;28;20108;-79
2021/08/30 05:34:32;;;;;;;24.65;18.50;;;16.50;94.90;;;;;;5095237;28;20028;-78
2021/08/30 05:36:58;;;;;;;26.67;17.00;;;16.50;94.90;;;;;;5093317;28;20020;-80
2021/08/30 05:39:24;;;;;;;22.42;16.40;;;16.50;95.00;;;;;;5072603;28;20036;-77
2021/08/30 05:41:49;;;;;;;22.13;17.35;;;16.50;94.90;;;;;;5055965;28;20478;-78
2021/08/30 05:44:15;;;;;;;22.75;16.85;;;16.50;94.80;;;;;;5039331;28;20025;-77
2021/08/30 05:46:41;;;;;;;22.65;16.35;;;16.50;94.80;;;;;;5073543;28;20397;-78
2021/08/30 05:49:06;;;;;;;25.90;17.10;;;16.60;94.80;;;;;;5073841;28;20404;-79
2021/08/30 05:51:32;;;;;;;22.75;17.08;;;16.60;94.70;;;;;;5056306;28;20120;-77
2021/08/30 05:53:58;;;;;;;26.67;17.30;;;16.60;94.70;;;;;;5096564;28;20016;-78
2021/08/30 05:56:23;;;;;;;24.77;17.50;;;16.60;94.70;;;;;;5113077;28;20035;-79
2021/08/30 05:58:49;;;;;;;22.40;16.27;;;16.60;94.60;;;;;;5113963;28;20020;-78
2021/08/30 06:01:15;;;;;;;24.95;17.08;;;16.70;94.70;;;;;;5112572;28;20023;-78
2021/08/30 06:03:41;;;;;;;26.20;18.33;;;16.70;94.60;;;;;;5095257;28;20040;-78
2021/08/30 06:06:07;;;;;;;22.38;18.02;;;16.70;94.60;;;;;;5076694;28;20105;-78
2021/08/30 06:08:33;;;;;;;24.70;18.50;;;16.70;94.60;;;;;;5094230;28;20032;-79
2021/08/30 06:11:00;;;;;;;26.23;18.60;;;16.80;94.60;;;;;;5077280;28;20487;-79
2021/08/30 06:13:26;;;;;;;24.42;18.10;;;16.80;94.60;;;;;;5094152;28;20098;-78
2021/08/30 06:15:52;;;;;;;27.73;19.58;;;16.80;94.50;;;;;;5100517;28;20024;-78
2021/08/30 06:18:19;;;;;;;22.52;18.20;;;16.90;94.50;;;;;;5095767;28;20024;-79
2021/08/30 06:20:45;;;;;;;27.58;19.55;;;16.90;94.40;;;;;;5078120;28;20036;-79
2021/08/30 06:23:10;;;;;;;22.75;18.88;;;17.00;94.40;;;;;;5086920;28;20025;-79
2021/08/30 06:25:36;;;;;;;26.73;19.92;;;17.00;94.30;;;;;;5069117;28;20060;-78
2021/08/30 06:28:02;;;;;;;28.23;20.95;;;17.00;94.30;;;;;;5059324;28;20038;-77
2021/08/30 06:30:28;;;;;;;27.35;20.95;;;17.00;94.30;;;;;;5077313;28;20025;-78
2021/08/30 06:32:54;;;;;;;28.35;22.20;;;17.00;94.20;;;;;;5102372;28;20064;-79
2021/08/30 06:35:20;;;;;;;29.75;21.95;;;17.00;94.20;;;;;;5109863;28;20051;-78
2021/08/30 06:37:46;;;;;;;29.17;20.50;;;17.00;94.20;;;;;;5096859;28;20043;-80
2021/08/30 06:40:12;;;;;;;29.23;21.75;;;17.00;94.20;;;;;;5080194;28;20165;-78
2021/08/30 06:42:39;;;;;;;33.17;22.17;;;17.00;94.20;;;;;;5079060;28;20408;-78
2021/08/30 06:45:05;;;;;;;34.13;25.75;;;17.00;94.20;;;;;;5096885;28;20069;-79
2021/08/30 06:47:31;;;;;;;34.50;26.42;;;17.10;94.30;;;;;;5096422;28;20031;-78
2021/08/30 06:49:56;;;;;;;33.40;23.08;;;17.10;94.20;;;;;;5095474;28;20030;-78
2021/08/30 06:52:22;;;;;;;31.23;22.95;;;17.20;94.20;;;;;;5098875;28;20056;-77
2021/08/30 06:54:48;;;;;;;31.45;23.75;;;17.20;94.10;;;;;;5110214;28;20024;-78
2021/08/30 06:57:14;;;;;;;28.70;22.27;;;17.30;94.10;;;;;;5089592;28;20024;-77
2021/08/30 06:59:46;;;;;;;32.58;24.40;;;17.40;94.00;;;;;;5095426;28;20028;-77
2021/08/30 07:02:12;;;;;;;32.92;23.70;;;17.70;93.90;;;;;;5101703;28;20031;-81
2021/08/30 07:04:37;;;;;;;30.27;23.05;;;18.10;93.60;;;;;;5090819;28;20115;-76
2021/08/30 07:07:04;;;;;;;32.38;21.63;;;18.20;92.90;;;;;;5074914;28;20047;-77
2021/08/30 07:09:33;;;;;;;29.45;23.00;;;18.20;92.70;;;;;;5084581;28;20023;-77
2021/08/30 07:11:58;;;;;;;32.15;23.35;;;18.20;92.60;;;;;;5103007;28;20020;-82
2021/08/30 07:14:24;;;;;;;30.42;23.40;;;18.00;92.60;;;;;;5104832;28;20032;-77
2021/08/30 07:16:50;;;;;;;30.70;24.05;;;17.90;92.90;;;;;;5102618;28;20046;-76
2021/08/30 07:19:15;;;;;;;31.23;22.92;;;17.90;92.90;;;;;;5090859;28;20036;-82
2021/08/30 07:21:41;;;;;;;32.80;24.83;;;17.80;92.90;;;;;;5087033;28;20031;-78
2021/08/30 07:24:07;;;;;;;31.10;23.38;;;17.80;92.90;;;;;;5102842;28;20461;-77
2021/08/30 07:26:32;;;;;;;33.70;23.98;;;17.80;92.90;;;;;;5083396;28;20032;-77
2021/08/30 07:28:58;;;;;;;30.25;20.88;;;17.80;92.80;;;;;;5103663;28;20478;-77
2021/08/30 07:31:24;;;;;;;31.90;23.67;;;17.90;92.70;;;;;;5075094;28;20044;-79
2021/08/30 07:33:49;;;;;;;32.10;25.52;;;17.90;92.70;;;;;;5098562;28;20046;-80
2021/08/30 07:36:15;;;;;;;28.20;22.55;;;18.00;92.60;;;;;;5095617;28;20422;-81
2021/08/30 07:38:42;;;;;;;29.00;21.63;;;18.00;92.50;;;;;;5093550;28;20087;-78
2021/08/30 07:41:07;;;;;;;29.48;21.48;;;18.20;92.40;;;;;;5093997;28;20020;-79
2021/08/30 07:43:34;;;;;;;33.72;22.90;;;18.30;92.20;;;;;;5081743;28;20064;-79
2021/08/30 07:46:01;;;;;;;30.75;22.35;;;18.40;92.00;;;;;;5089156;28;20085;-79
2021/08/30 07:48:27;;;;;;;29.55;21.83;;;18.50;91.80;;;;;;5095425;28;20020;-81
2021/08/30 07:50:53;;;;;;;25.92;20.48;;;18.60;91.70;;;;;;5094843;28;20104;-79
2021/08/30 07:53:20;;;;;;;28.77;20.15;;;18.60;91.50;;;;;;5095295;28;20057;-80
2021/08/30 07:55:45;;;;;;;29.45;20.67;;;18.70;91.40;;;;;;5092871;28;20468;-79
2021/08/30 07:58:15;;;;;;;26.75;21.58;;;18.80;91.40;;;;;;5095099;28;20053;-79
2021/08/30 08:00:41;;;;;;;28.98;21.30;;;18.80;91.10;;;;;;5074909;28;20020;-79
2021/08/30 08:03:07;;;;;;;27.25;19.45;;;18.80;90.90;;;;;;5075873;28;20053;-79
2021/08/30 08:05:32;;;;;;;29.70;21.13;;;18.80;90.90;;;;;;5090081;28;20029;-79
2021/08/30 08:07:58;;;;;;;25.05;20.48;;;18.80;90.90;;;;;;5076210;28;20021;-78
2021/08/30 08:10:24;;;;;;;25.23;19.30;;;18.80;90.90;;;;;;5091071;28;20033;-78
2021/08/30 08:12:49;;;;;;;26.88;20.33;;;18.90;90.90;;;;;;5079428;28;20036;-80
2021/08/30 08:15:15;;;;;;;24.90;19.95;;;18.80;90.80;;;;;;5082121;28;20032;-79
2021/08/30 08:17:41;;;;;;;26.58;18.83;;;18.80;90.80;;;;;;5092609;28;20024;-77
2021/08/30 08:20:08;;;;;;;24.52;18.95;;;18.80;90.70;;;;;;5094758;28;20053;-78
2021/08/30 08:22:34;;;;;;;24.33;18.83;;;18.80;90.70;;;;;;5090791;28;20043;-78
2021/08/30 08:25:03;;;;;;;20.83;16.95;;;18.80;90.70;;;;;;5073337;28;20024;-77
2021/08/30 08:27:30;;;;;;;23.20;18.83;;;18.80;90.60;;;;;;5090451;28;20073;-79
2021/08/30 08:29:56;;;;;;;23.95;18.48;;;18.70;90.60;;;;;;5087020;28;20016;-78
2021/08/30 08:32:22;;;;;;;26.20;19.13;;;18.70;90.60;;;;;;5090940;28;20069;-80
2021/08/30 08:34:48;;;;;;;24.83;18.63;;;18.60;90.50;;;;;;5090328;28;20035;-78
2021/08/30 08:37:13;;;;;;;25.27;19.27;;;18.60;90.60;;;;;;5073756;28;20032;-78
2021/08/30 08:39:39;;;;;;;26.80;18.80;;;18.70;90.50;;;;;;5090214;28;20058;-77
2021/08/30 08:42:05;;;;;;;27.60;19.33;;;18.90;90.50;;;;;;5073610;28;20052;-77
2021/08/30 08:44:30;;;;;;;31.98;19.33;;;19.00;90.40;;;;;;5091738;28;20430;-78
2021/08/30 08:46:57;;;;;;;24.48;18.75;;;19.10;90.20;;;;;;5094432;28;20028;-77
2021/08/30 08:49:23;;;;;;;25.33;18.65;;;19.30;90.10;;;;;;5075463;28;20416;-82
2021/08/30 08:51:50;;;;;;;25.35;17.90;;;19.40;89.60;;;;;;5095318;28;20165;-79
2021/08/30 08:54:16;;;;;;;33.10;18.48;;;19.50;89.20;;;;;;5077539;28;20120;-78
2021/08/30 08:56:44;;;;;;;23.73;16.85;;;19.70;88.80;;;;;;5091156;28;20103;-81
2021/08/30 08:59:10;;;;;;;22.77;18.00;;;20.00;88.10;;;;;;5077189;28;20036;-78
2021/08/30 09:01:37;;;;;;;23.77;16.80;;;20.30;87.30;;;;;;5093316;28;20032;-79
2021/08/30 09:04:04;;;;;;;22.60;15.55;;;20.70;86.50;;;;;;5057777;28;20170;-78
2021/08/30 09:06:43;;;;;;;18.85;15.07;;;21.10;85.10;;;;;;5058490;28;20029;-78
2021/08/30 09:09:13;;;;;;;17.33;14.73;;;21.60;83.70;;;;;;5093754;28;20503;-78
2021/08/30 09:11:44;;;;;;;17.98;14.13;;;22.10;82.70;;;;;;5092889;28;20436;-79
2021/08/30 09:14:18;;;;;;;19.88;14.05;;;22.60;80.60;;;;;;5094712;28;20020;-78
2021/08/30 09:16:45;;;;;;;17.33;14.35;;;22.30;78.60;;;;;;5094353;28;20050;-77
2021/08/30 09:19:14;;;;;;;14.75;13.07;;;22.30;79.20;;;;;;5094588;28;20460;-77
2021/08/30 09:21:48;;;;;;;17.27;12.75;;;22.40;79.60;;;;;;5086449;28;20131;-77
2021/08/30 09:24:23;;;;;;;19.25;13.95;;;22.60;77.10;;;;;;5093701;28;20507;-77
2021/08/30 09:26:50;;;;;;;16.38;12.57;;;22.60;75.40;;;;;;5098358;28;20041;-77
2021/08/30 09:29:24;;;;;;;14.60;12.80;;;22.40;76.00;;;;;;5092393;28;20016;-79
2021/08/30 09:32:02;;;;;;;15.27;12.73;;;22.20;75.40;;;;;;5090940;28;20627;-81
2021/08/30 09:34:57;;;;;;;16.10;12.55;;;21.80;77.30;;;;;;5089298;28;20058;-83
2021/08/30 09:37:25;;;;;;;14.20;12.48;;;21.70;78.10;;;;;;5088212;28;20044;-78
2021/08/30 09:39:55;;;;;;;15.13;13.23;;;21.50;78.70;;;;;;5090615;28;20065;-79
2021/08/30 09:42:21;;;;;;;17.55;12.02;;;21.50;78.60;;;;;;5089205;28;20498;-78
2021/08/30 09:44:47;;;;;;;17.02;12.02;;;21.40;79.10;;;;;;5094162;28;20020;-76
2021/08/30 09:47:17;;;;;;;15.93;11.90;;;21.30;78.90;;;;;;5093235;28;20529;-78
2021/08/30 09:49:46;;;;;;;13.30;11.93;;;21.20;79.20;;;;;;5093958;28;20533;-77
2021/08/30 09:52:11;;;;;;;14.80;12.20;;;21.10;79.30;;;;;;5094510;28;20035;-78
2021/08/30 09:54:37;;;;;;;14.82;12.07;;;21.10;79.50;;;;;;5092419;28;20028;-78
2021/08/30 09:57:04;;;;;;;14.20;11.15;;;21.10;79.30;;;;;;5072351;28;20583;-77
2021/08/30 09:59:30;;;;;;;13.63;11.27;;;21.20;78.90;;;;;;5091208;28;20020;-78
2021/08/30 10:02:02;;;;;;;13.15;10.18;;;21.40;78.70;;;;;;5093721;28;20059;-78
2021/08/30 10:04:29;;;;;;;14.07;11.13;;;21.50;78.20;;;;;;5089568;28;20033;-77
2021/08/30 10:06:55;;;;;;;11.57;10.25;;;21.70;78.20;;;;;;5068170;28;20013;-78
2021/08/30 10:09:22;;;;;;;15.35;11.48;;;21.80;77.90;;;;;;5092647;28;20133;-77
2021/08/30 10:11:50;;;;;;;13.13;10.35;;;21.90;77.00;;;;;;5075139;28;20071;-78
2021/08/30 10:14:28;;;;;;;14.52;10.43;;;22.00;76.60;;;;;;5093523;28;20480;-77
2021/08/30 10:16:56;;;;;;;12.50;9.80;;;22.20;76.60;;;;;;5093221;28;20123;-77
2021/08/30 10:19:35;;;;;;;11.82;10.02;;;22.40;75.60;;;;;;5091556;28;20487;-76
2021/08/30 10:22:17;;;;;;;11.68;9.73;;;22.90;75.30;;;;;;5089719;28;20053;-77
2021/08/30 10:24:44;;;;;;;12.15;9.90;;;23.20;74.30;;;;;;5092118;28;20040;-76
2021/08/30 10:27:10;;;;;;;14.18;9.70;;;23.20;72.70;;;;;;5090898;28;20050;-78
2021/08/30 10:29:38;;;;;;;12.45;9.73;;;23.10;73.70;;;;;;5091653;28;20024;-82
2021/08/30 10:32:05;;;;;;;12.98;10.05;;;23.00;73.50;;;;;;5091392;28;20028;-79
2021/08/30 10:34:34;;;;;;;12.45;9.35;;;22.80;73.50;;;;;;5090828;28;20039;-79
2021/08/30 10:37:02;;;;;;;11.43;9.45;;;22.60;74.20;;;;;;5091459;28;20026;-78
2021/08/30 10:39:44;;;;;;;11.60;10.40;;;22.50;74.80;;;;;;5088390;28;20159;-77
2021/08/30 10:42:14;;;;;;;14.70;10.70;;;22.50;74.80;;;;;;5080482;28;20458;-77
2021/08/30 10:44:55;;;;;;;14.85;11.38;;;22.70;75.10;;;;;;5085633;28;20062;-81
2021/08/30 10:47:33;;;;;;;16.45;10.43;;;22.90;75.00;;;;;;5089593;28;20035;-77
2021/08/30 10:49:59;;;;;;;14.50;11.70;;;23.20;74.40;;;;;;5085192;28;20483;-78
2021/08/30 10:52:39;;;;;;;12.93;11.48;;;23.30;73.90;;;;;;5088220;28;20042;-77
2021/08/30 10:55:18;;;;;;;16.60;12.82;;;23.40;73.90;;;;;;5071755;28;20036;-78
2021/08/30 10:57:51;;;;;;;13.40;11.15;;;23.30;73.60;;;;;;5086188;28;20039;-77
2021/08/30 11:00:28;;;;;;;13.27;10.65;;;23.10;73.60;;;;;;5090354;28;20035;-78
2021/08/30 11:02:55;;;;;;;13.52;10.55;;;22.70;73.60;;;;;;5090350;28;20055;-78
2021/08/30 11:05:29;;;;;;;12.25;9.93;;;22.50;74.20;;;;;;5088269;28;20078;-77
2021/08/30 11:07:56;;;;;;;12.65;9.82;;;22.30;74.40;;;;;;5087864;28;20021;-78
2021/08/30 11:10:25;;;;;;;16.75;11.25;;;22.10;74.50;;;;;;5095045;28;20030;-77
2021/08/30 11:12:51;;;;;;;12.38;10.75;;;22.10;74.50;;;;;;5084763;28;20033;-77
2021/08/30 11:15:17;;;;;;;13.55;10.35;;;22.10;74.80;;;;;;5087023;28;20858;-76
2021/08/30 11:17:43;;;;;;;11.30;10.05;;;22.30;74.50;;;;;;5092014;28;20028;-80
2021/08/30 11:20:10;;;;;;;15.80;11.40;;;22.40;74.10;;;;;;5091673;28;20141;-77
2021/08/30 11:22:36;;;;;;;13.18;10.80;;;22.60;73.60;;;;;;5090691;28;20028;-77
2021/08/30 11:25:05;;;;;;;11.88;10.55;;;22.60;73.80;;;;;;5082947;28;20036;-78
2021/08/30 11:27:33;;;;;;;14.77;11.73;;;22.60;73.80;;;;;;5088609;28;20035;-77
2021/08/30 11:30:01;;;;;;;14.68;11.65;;;22.50;74.20;;;;;;5090280;28;20114;-77
2021/08/30 11:32:29;;;;;;;16.25;12.13;;;22.30;74.70;;;;;;5080652;28;20376;-77
2021/08/30 11:34:57;;;;;;;16.50;12.00;;;22.30;75.30;;;;;;5089980;28;20085;-77
2021/08/30 11:37:29;;;;;;;14.30;11.48;;;22.30;75.20;;;;;;5087240;28;20024;-79
2021/08/30 11:39:59;;;;;;;15.73;11.20;;;22.40;75.20;;;;;;5069420;28;20035;-78
2021/08/30 11:42:27;;;;;;;14.25;10.90;;;22.50;74.90;;;;;;5072690;28;20059;-78
2021/08/30 11:44:57;;;;;;;14.80;11.13;;;22.60;74.40;;;;;;5100184;28;20495;-77
2021/08/30 11:47:24;;;;;;;13.10;10.20;;;22.60;74.20;;;;;;5073539;28;20498;-77
2021/08/30 11:50:00;;;;;;;11.32;10.13;;;22.70;74.10;;;;;;5067648;28;20031;-80
2021/08/30 11:52:31;;;;;;;13.75;10.25;;;22.70;74.00;;;;;;5089147;28;20024;-77
2021/08/30 11:55:02;;;;;;;11.52;9.85;;;22.80;74.30;;;;;;5090061;28;20044;-78
2021/08/30 11:57:51;;;;;;;12.48;9.93;;;23.10;74.10;;;;;;5089490;28;20024;-77
2021/08/30 12:00:22;;;;;;;11.80;9.63;;;23.50;72.10;;;;;;5082441;28;20016;-78
2021/08/30 12:03:00;;;;;;;12.52;9.13;;;23.90;70.90;;;;;;5085955;28;20111;-81
2021/08/30 12:05:27;;;;;;;9.23;8.27;;;24.20;69.50;;;;;;5090365;28;20054;-77
2021/08/30 12:07:54;;;;;;;9.15;8.18;;;24.50;69.50;;;;;;5085149;28;20032;-77
2021/08/30 12:10:21;;;;;;;11.27;9.10;;;24.60;68.00;;;;;;5088514;28;20473;-79
2021/08/30 12:15:44;;;;;;;12.73;9.68;;;24.50;67.80;;;;;;5056415;28;20562;-76
2021/08/30 12:18:17;;;;;;;11.60;10.15;;;24.30;67.60;;;;;;5089260;28;20039;-77
2021/08/30 12:20:44;;;;;;;11.00;9.60;;;24.10;67.70;;;;;;5087261;28;20028;-78
2021/08/30 12:23:18;;;;;;;13.57;9.93;;;23.90;68.70;;;;;;5092655;28;20444;-76
2021/08/30 12:25:46;;;;;;;12.82;10.45;;;23.70;69.50;;;;;;5093155;28;20056;-78
2021/08/30 12:28:14;;;;;;;13.82;10.18;;;23.60;70.10;;;;;;5094418;28;20012;-78
2021/08/30 12:30:43;;;;;;;14.52;11.50;;;23.40;70.50;;;;;;5091265;28;20020;-77
2021/08/30 12:33:16;;;;;;;12.73;10.63;;;23.30;71.00;;;;;;5093510;28;20036;-78
2021/08/30 12:35:43;;;;;;;13.70;12.18;;;23.10;70.80;;;;;;5092515;28;20040;-77